sensor_id;sensor_type;location;lat;lon;timestamp;temperature;humidity
59469;DHT22;45277;52.768;18.262;2023-03-12T00:00:05;0.70;99.90
59469;DHT22;45277;52.768;18.262;2023-03-12T00:01:59;0.70;99.90
59469;DHT22;45277;52.768;18.262;2023-03-12T00:03:30;0.70;99.90
59469;DHT22;45277;52.768;18.262;2023-03-12T00:05:02;0.70;99.90
59469;DHT22;45277;52.768;18.262;2023-03-12T00:06:34;0.80;99.90
59469;DHT22;45277;52.768;18.262;2023-03-12T00:08:07;0.80;99.90
59469;DHT22;45277;52.768;18.262;2023-03-12T00:09:39;0.80;99.90
59469;DHT22;45277;52.768;18.262;2023-03-12T00:11:17;0.80;99.90
59469;DHT22;45277;52.768;18.262;2023-03-12T00:12:48;0.70;99.90
59469;DHT22;45277;52.768;18.262;2023-03-12T00:14:20;0.70;99.90
59469;DHT22;45277;52.768;18.262;2023-03-12T00:15:52;0.70;99.90
59469;DHT22;45277;52.768;18.262;2023-03-12T00:17:23;0.70;99.90
59469;DHT22;45277;52.768;18.262;2023-03-12T00:18:56;0.70;99.90
59469;DHT22;45277;52.768;18.262;2023-03-12T00:20:27;0.70;99.90
59469;DHT22;45277;52.768;18.262;2023-03-12T00:22:00;0.60;99.90
59469;DHT22;45277;52.768;18.262;2023-03-12T00:23:32;0.60;99.90
59469;DHT22;45277;52.768;18.262;2023-03-12T00:25:05;0.60;99.90
59469;DHT22;45277;52.768;18.262;2023-03-12T00:26:36;0.50;99.90
59469;DHT22;45277;52.768;18.262;2023-03-12T00:28:08;0.50;99.90
59469;DHT22;45277;52.768;18.262;2023-03-12T00:29:40;0.50;99.90
59469;DHT22;45277;52.768;18.262;2023-03-12T00:31:21;0.50;99.90
59469;DHT22;45277;52.768;18.262;2023-03-12T00:32:53;0.40;99.90
59469;DHT22;45277;52.768;18.262;2023-03-12T00:34:24;0.50;99.90
59469;DHT22;45277;52.768;18.262;2023-03-12T00:35:59;0.40;99.90
59469;DHT22;45277;52.768;18.262;2023-03-12T00:37:31;0.40;99.90
59469;DHT22;45277;52.768;18.262;2023-03-12T00:39:05;0.40;99.90
59469;DHT22;45277;52.768;18.262;2023-03-12T00:40:37;0.40;99.90
59469;DHT22;45277;52.768;18.262;2023-03-12T00:42:09;0.40;99.90
59469;DHT22;45277;52.768;18.262;2023-03-12T00:43:41;0.40;99.90
59469;DHT22;45277;52.768;18.262;2023-03-12T00:45:12;0.50;99.90
59469;DHT22;45277;52.768;18.262;2023-03-12T00:46:44;0.40;99.90
59469;DHT22;45277;52.768;18.262;2023-03-12T00:48:16;0.40;99.90
59469;DHT22;45277;52.768;18.262;2023-03-12T00:49:47;0.30;99.90
59469;DHT22;45277;52.768;18.262;2023-03-12T00:51:19;0.30;99.90
59469;DHT22;45277;52.768;18.262;2023-03-12T00:52:51;0.30;99.90
59469;DHT22;45277;52.768;18.262;2023-03-12T00:54:22;0.30;99.90
59469;DHT22;45277;52.768;18.262;2023-03-12T00:55:54;0.30;99.90
59469;DHT22;45277;52.768;18.262;2023-03-12T00:57:26;0.40;99.90
59469;DHT22;45277;52.768;18.262;2023-03-12T00:58:57;0.50;99.90
59469;DHT22;45277;52.768;18.262;2023-03-12T01:00:29;0.60;99.90
59469;DHT22;45277;52.768;18.262;2023-03-12T01:02:01;0.70;99.90
59469;DHT22;45277;52.768;18.262;2023-03-12T01:03:32;0.70;99.90
59469;DHT22;45277;52.768;18.262;2023-03-12T01:05:06;0.80;99.90
59469;DHT22;45277;52.768;18.262;2023-03-12T01:06:38;0.90;99.90
59469;DHT22;45277;52.768;18.262;2023-03-12T01:08:10;1.00;99.90
59469;DHT22;45277;52.768;18.262;2023-03-12T01:09:42;1.10;99.90
59469;DHT22;45277;52.768;18.262;2023-03-12T01:11:14;1.10;99.90
59469;DHT22;45277;52.768;18.262;2023-03-12T01:12:46;1.10;99.90
59469;DHT22;45277;52.768;18.262;2023-03-12T01:14:18;1.20;99.90
59469;DHT22;45277;52.768;18.262;2023-03-12T01:15:50;1.20;99.90
59469;DHT22;45277;52.768;18.262;2023-03-12T01:17:21;1.20;99.90
59469;DHT22;45277;52.768;18.262;2023-03-12T01:18:53;1.20;99.90
59469;DHT22;45277;52.768;18.262;2023-03-12T01:20:25;1.20;99.90
59469;DHT22;45277;52.768;18.262;2023-03-12T01:21:56;1.20;99.90
59469;DHT22;45277;52.768;18.262;2023-03-12T01:23:29;1.20;99.90
59469;DHT22;45277;52.768;18.262;2023-03-12T01:25:00;1.20;99.90
59469;DHT22;45277;52.768;18.262;2023-03-12T01:26:32;1.20;99.90
59469;DHT22;45277;52.768;18.262;2023-03-12T01:28:04;1.10;99.90
59469;DHT22;45277;52.768;18.262;2023-03-12T01:29:36;1.20;99.90
59469;DHT22;45277;52.768;18.262;2023-03-12T01:31:15;1.20;99.90
59469;DHT22;45277;52.768;18.262;2023-03-12T01:32:47;1.20;99.90
59469;DHT22;45277;52.768;18.262;2023-03-12T01:34:18;1.10;99.90
59469;DHT22;45277;52.768;18.262;2023-03-12T01:35:50;1.10;99.90
59469;DHT22;45277;52.768;18.262;2023-03-12T01:37:21;1.10;99.90
59469;DHT22;45277;52.768;18.262;2023-03-12T01:38:55;1.00;99.90
59469;DHT22;45277;52.768;18.262;2023-03-12T01:40:26;1.10;99.90
59469;DHT22;45277;52.768;18.262;2023-03-12T01:41:59;1.10;99.90
59469;DHT22;45277;52.768;18.262;2023-03-12T01:43:34;1.10;99.90
59469;DHT22;45277;52.768;18.262;2023-03-12T01:47:16;1.10;99.90
59469;DHT22;45277;52.768;18.262;2023-03-12T01:48:55;1.10;99.90
59469;DHT22;45277;52.768;18.262;2023-03-12T01:50:27;1.10;99.90
59469;DHT22;45277;52.768;18.262;2023-03-12T01:52:04;1.10;99.90
59469;DHT22;45277;52.768;18.262;2023-03-12T01:53:36;1.00;99.90
59469;DHT22;45277;52.768;18.262;2023-03-12T01:55:12;0.90;99.90
59469;DHT22;45277;52.768;18.262;2023-03-12T01:56:46;0.90;99.90
59469;DHT22;45277;52.768;18.262;2023-03-12T01:58:18;0.90;99.90
59469;DHT22;45277;52.768;18.262;2023-03-12T01:59:53;0.80;99.90
59469;DHT22;45277;52.768;18.262;2023-03-12T02:01:27;0.80;99.90
59469;DHT22;45277;52.768;18.262;2023-03-12T02:03:03;0.80;99.90
59469;DHT22;45277;52.768;18.262;2023-03-12T02:04:36;0.80;99.90
59469;DHT22;45277;52.768;18.262;2023-03-12T02:06:12;0.80;99.90
59469;DHT22;45277;52.768;18.262;2023-03-12T02:07:45;0.80;99.90
59469;DHT22;45277;52.768;18.262;2023-03-12T02:09:17;0.80;99.90
59469;DHT22;45277;52.768;18.262;2023-03-12T02:10:51;0.80;99.90
59469;DHT22;45277;52.768;18.262;2023-03-12T02:12:22;0.80;99.90
59469;DHT22;45277;52.768;18.262;2023-03-12T02:13:53;0.70;99.90
59469;DHT22;45277;52.768;18.262;2023-03-12T02:15:25;0.80;99.90
59469;DHT22;45277;52.768;18.262;2023-03-12T02:16:57;0.70;99.90
59469;DHT22;45277;52.768;18.262;2023-03-12T02:18:29;0.80;99.90
59469;DHT22;45277;52.768;18.262;2023-03-12T02:20:17;0.80;99.90
59469;DHT22;45277;52.768;18.262;2023-03-12T02:21:51;0.80;99.90
59469;DHT22;45277;52.768;18.262;2023-03-12T02:23:37;0.70;99.90
59469;DHT22;45277;52.768;18.262;2023-03-12T02:25:25;0.80;99.90
59469;DHT22;45277;52.768;18.262;2023-03-12T02:26:58;0.70;99.90
59469;DHT22;45277;52.768;18.262;2023-03-12T02:28:32;0.70;99.90
59469;DHT22;45277;52.768;18.262;2023-03-12T02:30:05;0.70;99.90
59469;DHT22;45277;52.768;18.262;2023-03-12T02:32:02;0.80;99.90
59469;DHT22;45277;52.768;18.262;2023-03-12T02:33:34;0.90;99.90
59469;DHT22;45277;52.768;18.262;2023-03-12T02:35:06;0.90;99.90
59469;DHT22;45277;52.768;18.262;2023-03-12T02:36:37;1.00;99.90
59469;DHT22;45277;52.768;18.262;2023-03-12T02:40:36;1.00;99.90
59469;DHT22;45277;52.768;18.262;2023-03-12T02:42:09;1.00;99.90
59469;DHT22;45277;52.768;18.262;2023-03-12T02:43:48;1.00;99.90
59469;DHT22;45277;52.768;18.262;2023-03-12T02:45:20;1.00;99.90
59469;DHT22;45277;52.768;18.262;2023-03-12T02:46:54;1.00;99.90
59469;DHT22;45277;52.768;18.262;2023-03-12T02:48:26;1.10;99.90
59469;DHT22;45277;52.768;18.262;2023-03-12T02:49:57;1.00;99.90
59469;DHT22;45277;52.768;18.262;2023-03-12T02:51:29;1.10;99.90
59469;DHT22;45277;52.768;18.262;2023-03-12T02:53:00;1.10;99.90
59469;DHT22;45277;52.768;18.262;2023-03-12T02:54:32;1.20;99.90
59469;DHT22;45277;52.768;18.262;2023-03-12T02:56:03;1.10;99.90
59469;DHT22;45277;52.768;18.262;2023-03-12T02:57:35;1.10;99.90
59469;DHT22;45277;52.768;18.262;2023-03-12T02:59:10;1.10;99.90
59469;DHT22;45277;52.768;18.262;2023-03-12T03:00:43;1.20;99.90
59469;DHT22;45277;52.768;18.262;2023-03-12T03:02:15;1.20;99.90
59469;DHT22;45277;52.768;18.262;2023-03-12T03:03:46;1.20;99.90
59469;DHT22;45277;52.768;18.262;2023-03-12T03:05:18;1.10;99.90
59469;DHT22;45277;52.768;18.262;2023-03-12T03:06:51;1.10;99.90
59469;DHT22;45277;52.768;18.262;2023-03-12T03:08:22;1.10;99.90
59469;DHT22;45277;52.768;18.262;2023-03-12T03:09:53;1.20;99.90
59469;DHT22;45277;52.768;18.262;2023-03-12T03:11:25;1.20;99.90
59469;DHT22;45277;52.768;18.262;2023-03-12T03:12:57;1.20;99.90
59469;DHT22;45277;52.768;18.262;2023-03-12T03:14:28;1.20;99.90
59469;DHT22;45277;52.768;18.262;2023-03-12T03:16:00;1.20;99.90
59469;DHT22;45277;52.768;18.262;2023-03-12T03:17:33;1.20;99.90
59469;DHT22;45277;52.768;18.262;2023-03-12T03:19:05;1.20;99.90
59469;DHT22;45277;52.768;18.262;2023-03-12T03:20:37;1.20;99.90
59469;DHT22;45277;52.768;18.262;2023-03-12T03:22:08;1.20;99.90
59469;DHT22;45277;52.768;18.262;2023-03-12T03:23:40;1.30;99.90
59469;DHT22;45277;52.768;18.262;2023-03-12T03:25:12;1.30;99.90
59469;DHT22;45277;52.768;18.262;2023-03-12T03:26:43;1.30;99.90
59469;DHT22;45277;52.768;18.262;2023-03-12T03:28:14;1.30;99.90
59469;DHT22;45277;52.768;18.262;2023-03-12T03:29:46;1.20;99.90
59469;DHT22;45277;52.768;18.262;2023-03-12T03:31:18;1.20;99.90
59469;DHT22;45277;52.768;18.262;2023-03-12T03:32:49;1.20;99.90
59469;DHT22;45277;52.768;18.262;2023-03-12T03:34:21;1.30;99.90
59469;DHT22;45277;52.768;18.262;2023-03-12T03:35:53;1.30;99.90
59469;DHT22;45277;52.768;18.262;2023-03-12T03:37:25;1.30;99.90
59469;DHT22;45277;52.768;18.262;2023-03-12T03:38:57;1.30;99.90
59469;DHT22;45277;52.768;18.262;2023-03-12T03:40:29;1.30;99.90
59469;DHT22;45277;52.768;18.262;2023-03-12T03:42:00;1.30;99.90
59469;DHT22;45277;52.768;18.262;2023-03-12T03:43:32;1.30;99.90
59469;DHT22;45277;52.768;18.262;2023-03-12T03:45:05;1.30;99.90
59469;DHT22;45277;52.768;18.262;2023-03-12T03:46:36;1.30;99.90
59469;DHT22;45277;52.768;18.262;2023-03-12T03:48:08;1.30;99.90
59469;DHT22;45277;52.768;18.262;2023-03-12T03:49:39;1.30;99.90
59469;DHT22;45277;52.768;18.262;2023-03-12T03:51:13;1.30;99.90
59469;DHT22;45277;52.768;18.262;2023-03-12T03:52:44;1.30;99.90
59469;DHT22;45277;52.768;18.262;2023-03-12T03:54:16;1.30;99.90
59469;DHT22;45277;52.768;18.262;2023-03-12T03:55:48;1.30;99.90
59469;DHT22;45277;52.768;18.262;2023-03-12T03:57:20;1.30;99.90
59469;DHT22;45277;52.768;18.262;2023-03-12T03:58:51;1.30;99.90
59469;DHT22;45277;52.768;18.262;2023-03-12T04:00:22;1.30;99.90
59469;DHT22;45277;52.768;18.262;2023-03-12T04:01:54;1.40;99.90
59469;DHT22;45277;52.768;18.262;2023-03-12T04:03:26;1.30;99.90
59469;DHT22;45277;52.768;18.262;2023-03-12T04:04:57;1.30;99.90
59469;DHT22;45277;52.768;18.262;2023-03-12T04:06:30;1.30;99.90
59469;DHT22;45277;52.768;18.262;2023-03-12T04:08:02;1.20;99.90
59469;DHT22;45277;52.768;18.262;2023-03-12T04:09:33;1.10;99.90
59469;DHT22;45277;52.768;18.262;2023-03-12T04:11:10;1.10;99.90
59469;DHT22;45277;52.768;18.262;2023-03-12T04:12:41;1.20;99.90
59469;DHT22;45277;52.768;18.262;2023-03-12T04:14:13;1.20;99.90
59469;DHT22;45277;52.768;18.262;2023-03-12T04:15:50;1.20;99.90
59469;DHT22;45277;52.768;18.262;2023-03-12T04:17:22;1.20;99.90
59469;DHT22;45277;52.768;18.262;2023-03-12T04:18:53;1.20;99.90
59469;DHT22;45277;52.768;18.262;2023-03-12T04:20:25;1.20;99.90
59469;DHT22;45277;52.768;18.262;2023-03-12T04:21:56;1.20;99.90
59469;DHT22;45277;52.768;18.262;2023-03-12T04:23:27;1.20;99.90
59469;DHT22;45277;52.768;18.262;2023-03-12T04:24:59;1.20;99.90
59469;DHT22;45277;52.768;18.262;2023-03-12T04:26:31;1.20;99.90
59469;DHT22;45277;52.768;18.262;2023-03-12T04:28:02;1.20;99.90
59469;DHT22;45277;52.768;18.262;2023-03-12T04:29:34;1.20;99.90
59469;DHT22;45277;52.768;18.262;2023-03-12T04:31:07;1.20;99.90
59469;DHT22;45277;52.768;18.262;2023-03-12T04:32:39;1.20;99.90
59469;DHT22;45277;52.768;18.262;2023-03-12T04:34:11;1.10;99.90
59469;DHT22;45277;52.768;18.262;2023-03-12T04:35:49;1.10;99.90
59469;DHT22;45277;52.768;18.262;2023-03-12T04:37:21;1.10;99.90
59469;DHT22;45277;52.768;18.262;2023-03-12T04:38:54;1.10;99.90
59469;DHT22;45277;52.768;18.262;2023-03-12T04:40:25;1.10;99.90
59469;DHT22;45277;52.768;18.262;2023-03-12T04:41:57;1.00;99.90
59469;DHT22;45277;52.768;18.262;2023-03-12T04:43:29;0.90;99.90
59469;DHT22;45277;52.768;18.262;2023-03-12T04:45:02;0.90;99.90
59469;DHT22;45277;52.768;18.262;2023-03-12T04:46:34;0.90;99.90
59469;DHT22;45277;52.768;18.262;2023-03-12T04:48:06;0.90;99.90
59469;DHT22;45277;52.768;18.262;2023-03-12T04:49:37;0.90;99.90
59469;DHT22;45277;52.768;18.262;2023-03-12T04:51:09;0.90;99.90
59469;DHT22;45277;52.768;18.262;2023-03-12T04:52:41;0.90;99.90
59469;DHT22;45277;52.768;18.262;2023-03-12T04:54:12;0.90;99.90
59469;DHT22;45277;52.768;18.262;2023-03-12T04:55:44;0.90;99.90
59469;DHT22;45277;52.768;18.262;2023-03-12T04:57:16;0.90;99.90
59469;DHT22;45277;52.768;18.262;2023-03-12T04:58:47;0.90;99.90
59469;DHT22;45277;52.768;18.262;2023-03-12T05:00:19;0.90;99.90
59469;DHT22;45277;52.768;18.262;2023-03-12T05:01:51;0.90;99.90
59469;DHT22;45277;52.768;18.262;2023-03-12T05:03:22;0.80;99.90
59469;DHT22;45277;52.768;18.262;2023-03-12T05:04:55;0.90;99.90
59469;DHT22;45277;52.768;18.262;2023-03-12T05:06:27;0.90;99.90
59469;DHT22;45277;52.768;18.262;2023-03-12T05:07:59;0.90;99.90
59469;DHT22;45277;52.768;18.262;2023-03-12T05:09:30;0.80;99.90
59469;DHT22;45277;52.768;18.262;2023-03-12T05:11:02;0.80;99.90
59469;DHT22;45277;52.768;18.262;2023-03-12T05:12:34;0.70;99.90
59469;DHT22;45277;52.768;18.262;2023-03-12T05:14:05;0.70;99.90
59469;DHT22;45277;52.768;18.262;2023-03-12T05:15:37;0.70;99.90
59469;DHT22;45277;52.768;18.262;2023-03-12T05:17:09;0.60;99.90
59469;DHT22;45277;52.768;18.262;2023-03-12T05:18:41;0.70;99.90
59469;DHT22;45277;52.768;18.262;2023-03-12T05:20:13;0.60;99.90
59469;DHT22;45277;52.768;18.262;2023-03-12T05:21:44;0.60;99.90
59469;DHT22;45277;52.768;18.262;2023-03-12T05:23:16;0.60;99.90
59469;DHT22;45277;52.768;18.262;2023-03-12T05:24:48;0.50;99.90
59469;DHT22;45277;52.768;18.262;2023-03-12T05:26:28;0.50;99.90
59469;DHT22;45277;52.768;18.262;2023-03-12T05:28:01;0.40;99.90
59469;DHT22;45277;52.768;18.262;2023-03-12T05:29:33;0.40;99.90
59469;DHT22;45277;52.768;18.262;2023-03-12T05:31:08;0.40;99.90
59469;DHT22;45277;52.768;18.262;2023-03-12T05:32:40;0.40;99.90
59469;DHT22;45277;52.768;18.262;2023-03-12T05:34:13;0.40;99.90
59469;DHT22;45277;52.768;18.262;2023-03-12T05:35:44;0.40;99.90
59469;DHT22;45277;52.768;18.262;2023-03-12T05:37:16;0.40;99.90
59469;DHT22;45277;52.768;18.262;2023-03-12T05:38:48;0.30;99.90
59469;DHT22;45277;52.768;18.262;2023-03-12T05:40:19;0.20;99.90
59469;DHT22;45277;52.768;18.262;2023-03-12T05:41:51;0.30;99.90
59469;DHT22;45277;52.768;18.262;2023-03-12T05:43:27;0.30;99.90
59469;DHT22;45277;52.768;18.262;2023-03-12T05:44:58;0.30;99.90
59469;DHT22;45277;52.768;18.262;2023-03-12T05:46:30;0.30;99.90
59469;DHT22;45277;52.768;18.262;2023-03-12T05:48:02;0.40;99.90
59469;DHT22;45277;52.768;18.262;2023-03-12T05:49:34;0.30;99.90
59469;DHT22;45277;52.768;18.262;2023-03-12T05:51:05;0.30;99.90
59469;DHT22;45277;52.768;18.262;2023-03-12T05:52:37;0.40;99.90
59469;DHT22;45277;52.768;18.262;2023-03-12T05:54:09;0.40;99.90
59469;DHT22;45277;52.768;18.262;2023-03-12T05:55:40;0.40;99.90
59469;DHT22;45277;52.768;18.262;2023-03-12T05:57:12;0.40;99.90
59469;DHT22;45277;52.768;18.262;2023-03-12T05:58:46;0.50;99.90
59469;DHT22;45277;52.768;18.262;2023-03-12T06:00:18;0.50;99.90
59469;DHT22;45277;52.768;18.262;2023-03-12T06:01:50;0.50;99.90
59469;DHT22;45277;52.768;18.262;2023-03-12T06:03:22;0.60;99.90
59469;DHT22;45277;52.768;18.262;2023-03-12T06:04:53;0.60;99.90
59469;DHT22;45277;52.768;18.262;2023-03-12T06:06:25;0.60;99.90
59469;DHT22;45277;52.768;18.262;2023-03-12T06:07:57;0.60;99.90
59469;DHT22;45277;52.768;18.262;2023-03-12T06:09:28;0.70;99.90
59469;DHT22;45277;52.768;18.262;2023-03-12T06:11:00;0.70;99.90
59469;DHT22;45277;52.768;18.262;2023-03-12T06:12:32;0.80;99.90
59469;DHT22;45277;52.768;18.262;2023-03-12T06:14:03;0.80;99.90
59469;DHT22;45277;52.768;18.262;2023-03-12T06:15:35;0.90;99.90
59469;DHT22;45277;52.768;18.262;2023-03-12T06:17:07;0.90;99.90
59469;DHT22;45277;52.768;18.262;2023-03-12T06:18:38;0.90;99.90
59469;DHT22;45277;52.768;18.262;2023-03-12T06:20:11;1.00;99.90
59469;DHT22;45277;52.768;18.262;2023-03-12T06:21:42;1.00;99.90
59469;DHT22;45277;52.768;18.262;2023-03-12T06:23:13;1.10;99.90
59469;DHT22;45277;52.768;18.262;2023-03-12T06:24:45;1.10;99.90
59469;DHT22;45277;52.768;18.262;2023-03-12T06:26:20;1.10;99.90
59469;DHT22;45277;52.768;18.262;2023-03-12T06:27:52;1.20;99.90
59469;DHT22;45277;52.768;18.262;2023-03-12T06:29:24;1.20;99.90
59469;DHT22;45277;52.768;18.262;2023-03-12T06:30:56;1.10;99.90
59469;DHT22;45277;52.768;18.262;2023-03-12T06:32:27;1.10;99.90
59469;DHT22;45277;52.768;18.262;2023-03-12T06:33:59;1.00;99.90
59469;DHT22;45277;52.768;18.262;2023-03-12T06:35:30;1.00;99.90
59469;DHT22;45277;52.768;18.262;2023-03-12T06:37:02;1.00;99.90
59469;DHT22;45277;52.768;18.262;2023-03-12T06:38:34;1.00;99.90
59469;DHT22;45277;52.768;18.262;2023-03-12T06:40:06;1.00;99.90
59469;DHT22;45277;52.768;18.262;2023-03-12T06:41:40;1.00;99.90
59469;DHT22;45277;52.768;18.262;2023-03-12T06:43:12;1.00;99.90
59469;DHT22;45277;52.768;18.262;2023-03-12T06:44:44;0.90;99.90
59469;DHT22;45277;52.768;18.262;2023-03-12T06:46:18;1.00;99.90
59469;DHT22;45277;52.768;18.262;2023-03-12T06:47:52;1.00;99.90
59469;DHT22;45277;52.768;18.262;2023-03-12T06:49:23;1.00;99.90
59469;DHT22;45277;52.768;18.262;2023-03-12T06:50:56;1.00;99.90
59469;DHT22;45277;52.768;18.262;2023-03-12T06:52:28;1.10;99.90
59469;DHT22;45277;52.768;18.262;2023-03-12T06:54:03;1.10;99.90
59469;DHT22;45277;52.768;18.262;2023-03-12T06:55:34;1.10;99.90
59469;DHT22;45277;52.768;18.262;2023-03-12T06:57:06;1.00;99.90
59469;DHT22;45277;52.768;18.262;2023-03-12T06:58:37;1.10;99.90
59469;DHT22;45277;52.768;18.262;2023-03-12T07:00:09;1.10;99.90
59469;DHT22;45277;52.768;18.262;2023-03-12T07:01:41;1.10;99.90
59469;DHT22;45277;52.768;18.262;2023-03-12T07:03:13;1.10;99.90
59469;DHT22;45277;52.768;18.262;2023-03-12T07:04:45;1.10;99.90
59469;DHT22;45277;52.768;18.262;2023-03-12T07:06:20;1.10;99.90
59469;DHT22;45277;52.768;18.262;2023-03-12T07:07:52;1.10;99.90
59469;DHT22;45277;52.768;18.262;2023-03-12T07:09:24;1.10;99.90
59469;DHT22;45277;52.768;18.262;2023-03-12T07:10:56;1.20;99.90
59469;DHT22;45277;52.768;18.262;2023-03-12T07:12:28;1.20;99.90
59469;DHT22;45277;52.768;18.262;2023-03-12T07:13:59;1.20;99.90
59469;DHT22;45277;52.768;18.262;2023-03-12T07:15:32;1.30;99.90
59469;DHT22;45277;52.768;18.262;2023-03-12T07:17:04;1.30;99.90
59469;DHT22;45277;52.768;18.262;2023-03-12T07:18:36;1.30;99.90
59469;DHT22;45277;52.768;18.262;2023-03-12T07:20:08;1.40;99.90
59469;DHT22;45277;52.768;18.262;2023-03-12T07:21:40;1.40;99.90
59469;DHT22;45277;52.768;18.262;2023-03-12T07:23:12;1.40;99.90
59469;DHT22;45277;52.768;18.262;2023-03-12T07:24:47;1.40;99.90
59469;DHT22;45277;52.768;18.262;2023-03-12T07:26:19;1.40;99.90
59469;DHT22;45277;52.768;18.262;2023-03-12T07:27:51;1.50;99.90
59469;DHT22;45277;52.768;18.262;2023-03-12T07:29:23;1.50;99.90
59469;DHT22;45277;52.768;18.262;2023-03-12T07:30:59;1.50;99.90
59469;DHT22;45277;52.768;18.262;2023-03-12T07:32:31;1.50;99.90
59469;DHT22;45277;52.768;18.262;2023-03-12T07:34:04;1.50;99.90
59469;DHT22;45277;52.768;18.262;2023-03-12T07:35:37;1.60;99.90
59469;DHT22;45277;52.768;18.262;2023-03-12T07:37:09;1.60;99.90
59469;DHT22;45277;52.768;18.262;2023-03-12T07:38:41;1.60;99.90
59469;DHT22;45277;52.768;18.262;2023-03-12T07:40:13;1.70;99.90
59469;DHT22;45277;52.768;18.262;2023-03-12T07:41:44;1.70;99.90
59469;DHT22;45277;52.768;18.262;2023-03-12T07:43:16;1.80;99.70
59469;DHT22;45277;52.768;18.262;2023-03-12T07:44:47;1.80;98.00
59469;DHT22;45277;52.768;18.262;2023-03-12T07:46:19;1.80;98.40
59469;DHT22;45277;52.768;18.262;2023-03-12T07:47:51;1.80;99.70
59469;DHT22;45277;52.768;18.262;2023-03-12T07:49:22;1.90;98.30
59469;DHT22;45277;52.768;18.262;2023-03-12T07:50:54;1.90;97.70
59469;DHT22;45277;52.768;18.262;2023-03-12T07:52:26;2.00;96.80
59469;DHT22;45277;52.768;18.262;2023-03-12T07:53:58;1.90;95.70
59469;DHT22;45277;52.768;18.262;2023-03-12T07:55:30;1.90;96.00
59469;DHT22;45277;52.768;18.262;2023-03-12T07:57:03;2.00;96.60
59469;DHT22;45277;52.768;18.262;2023-03-12T07:58:34;2.00;96.40
59469;DHT22;45277;52.768;18.262;2023-03-12T08:00:07;2.00;98.00
59469;DHT22;45277;52.768;18.262;2023-03-12T08:01:40;2.00;96.40
59469;DHT22;45277;52.768;18.262;2023-03-12T08:03:12;2.00;97.10
59469;DHT22;45277;52.768;18.262;2023-03-12T08:04:44;2.10;98.20
59469;DHT22;45277;52.768;18.262;2023-03-12T08:06:15;2.00;97.20
59469;DHT22;45277;52.768;18.262;2023-03-12T08:07:47;2.10;98.70
59469;DHT22;45277;52.768;18.262;2023-03-12T08:09:18;2.20;97.80
59469;DHT22;45277;52.768;18.262;2023-03-12T08:10:50;2.20;98.80
59469;DHT22;45277;52.768;18.262;2023-03-12T08:12:23;2.20;95.80
59469;DHT22;45277;52.768;18.262;2023-03-12T08:13:54;2.20;97.30
59469;DHT22;45277;52.768;18.262;2023-03-12T08:15:26;2.20;97.20
59469;DHT22;45277;52.768;18.262;2023-03-12T08:16:58;2.30;99.90
59469;DHT22;45277;52.768;18.262;2023-03-12T08:18:30;2.40;99.80
59469;DHT22;45277;52.768;18.262;2023-03-12T08:20:02;2.30;94.90
59469;DHT22;45277;52.768;18.262;2023-03-12T08:21:35;2.20;97.70
59469;DHT22;45277;52.768;18.262;2023-03-12T08:23:07;2.20;99.90
59469;DHT22;45277;52.768;18.262;2023-03-12T08:24:39;2.30;96.70
59469;DHT22;45277;52.768;18.262;2023-03-12T08:26:10;2.30;98.90
59469;DHT22;45277;52.768;18.262;2023-03-12T08:27:42;2.40;95.10
59469;DHT22;45277;52.768;18.262;2023-03-12T08:29:15;2.40;95.50
59469;DHT22;45277;52.768;18.262;2023-03-12T08:30:50;2.50;96.90
59469;DHT22;45277;52.768;18.262;2023-03-12T08:32:21;2.50;96.20
59469;DHT22;45277;52.768;18.262;2023-03-12T08:33:53;2.50;95.30
59469;DHT22;45277;52.768;18.262;2023-03-12T08:35:26;2.60;93.80
59469;DHT22;45277;52.768;18.262;2023-03-12T08:36:57;2.70;93.70
59469;DHT22;45277;52.768;18.262;2023-03-12T08:38:29;2.60;94.20
59469;DHT22;45277;52.768;18.262;2023-03-12T08:40:18;2.80;94.10
59469;DHT22;45277;52.768;18.262;2023-03-12T08:41:50;2.80;95.00
59469;DHT22;45277;52.768;18.262;2023-03-12T08:43:25;2.80;88.90
59469;DHT22;45277;52.768;18.262;2023-03-12T08:44:58;2.80;95.10
59469;DHT22;45277;52.768;18.262;2023-03-12T08:46:30;2.90;92.00
59469;DHT22;45277;52.768;18.262;2023-03-12T08:48:06;3.00;92.30
59469;DHT22;45277;52.768;18.262;2023-03-12T08:49:38;3.20;92.40
59469;DHT22;45277;52.768;18.262;2023-03-12T08:51:10;3.30;84.30
59469;DHT22;45277;52.768;18.262;2023-03-12T08:52:43;3.40;89.50
59469;DHT22;45277;52.768;18.262;2023-03-12T08:54:15;3.30;75.30
59469;DHT22;45277;52.768;18.262;2023-03-12T08:55:47;3.20;74.40
59469;DHT22;45277;52.768;18.262;2023-03-12T08:57:18;3.10;75.30
59469;DHT22;45277;52.768;18.262;2023-03-12T08:58:51;3.20;79.30
59469;DHT22;45277;52.768;18.262;2023-03-12T09:00:22;3.30;80.00
59469;DHT22;45277;52.768;18.262;2023-03-12T09:01:55;3.30;81.70
59469;DHT22;45277;52.768;18.262;2023-03-12T09:03:26;3.20;75.60
59469;DHT22;45277;52.768;18.262;2023-03-12T09:04:58;3.20;72.70
59469;DHT22;45277;52.768;18.262;2023-03-12T09:06:30;3.20;75.60
59469;DHT22;45277;52.768;18.262;2023-03-12T09:08:02;3.30;86.10
59469;DHT22;45277;52.768;18.262;2023-03-12T09:09:34;3.40;87.50
59469;DHT22;45277;52.768;18.262;2023-03-12T09:11:07;3.60;85.00
59469;DHT22;45277;52.768;18.262;2023-03-12T09:12:40;3.70;78.50
59469;DHT22;45277;52.768;18.262;2023-03-12T09:14:12;3.80;73.50
59469;DHT22;45277;52.768;18.262;2023-03-12T09:15:43;3.70;70.00
59469;DHT22;45277;52.768;18.262;2023-03-12T09:17:15;3.60;73.40
59469;DHT22;45277;52.768;18.262;2023-03-12T09:18:46;3.50;72.70
59469;DHT22;45277;52.768;18.262;2023-03-12T09:20:18;3.50;72.50
59469;DHT22;45277;52.768;18.262;2023-03-12T09:21:50;3.40;69.60
59469;DHT22;45277;52.768;18.262;2023-03-12T09:41:31;3.80;65.80
59469;DHT22;45277;52.768;18.262;2023-03-12T09:43:10;3.70;81.80
59469;DHT22;45277;52.768;18.262;2023-03-12T09:44:45;3.90;73.70
59469;DHT22;45277;52.768;18.262;2023-03-12T09:46:22;4.00;69.80
59469;DHT22;45277;52.768;18.262;2023-03-12T09:47:59;4.30;72.50
59469;DHT22;45277;52.768;18.262;2023-03-12T09:49:44;4.40;60.20
59469;DHT22;45277;52.768;18.262;2023-03-12T09:51:54;4.30;63.40
59469;DHT22;45277;52.768;18.262;2023-03-12T09:53:39;4.20;66.80
59469;DHT22;45277;52.768;18.262;2023-03-12T09:55:21;3.90;61.90
59469;DHT22;45277;52.768;18.262;2023-03-12T09:56:56;3.80;67.70
59469;DHT22;45277;52.768;18.262;2023-03-12T09:58:37;3.70;55.90
59469;DHT22;45277;52.768;18.262;2023-03-12T10:00:16;3.50;60.40
59469;DHT22;45277;52.768;18.262;2023-03-12T10:01:51;3.60;64.80
59469;DHT22;45277;52.768;18.262;2023-03-12T10:07:41;3.90;65.50
59469;DHT22;45277;52.768;18.262;2023-03-12T10:10:05;3.80;58.50
59469;DHT22;45277;52.768;18.262;2023-03-12T10:11:51;3.80;68.50
59469;DHT22;45277;52.768;18.262;2023-03-12T10:17:18;3.90;59.40